Погода Летнее Озерона неделю

Республика Карелия, Россия

19 - 25 июля
  • 19июля
    Сегодня
    +11°
    +17°
    Пасмурно, ливень
    ВремяПогодаТемператураВлажностьДавлениеВетер, м/сВероятность осадков
    00:00Пасмурно, ливень+15°C93 %758 мм2.7 м/с59 %
    03:00Пасмурно, ливень+14°C94 %758 мм2.5 м/с68 %
    06:00Пасмурно, небольшой дождь+14°C95 %758 мм3.1 м/с64 %
    09:00Пасмурно, дождь+15°C99 %757 мм2.8 м/с64 %
    12:00Пасмурно, дождь+17°C98 %757 мм2.6 м/с78 %
    15:00Пасмурно, ливень+16°C93 %757 мм3.1 м/с64 %
    18:00Пасмурно, дождь+14°C97 %757 мм4.2 м/с62 %
    21:00Пасмурно, ливень+13°C94 %758 мм4.2 м/с64 %
  • 20июля
    Суббота
    +9°
    +17°
    Практически безоблачно
    ВремяПогодаТемператураВлажностьДавлениеВетер, м/сВероятность осадков
    00:00Пасмурно, ливень+12°C95 %758 мм3.7 м/с60 %
    03:00Облачно с прояснениями, ливень+11°C94 %758 мм3.8 м/с52 %
    06:00Небольшая облачность+12°C92 %759 мм3.7 м/с19 %
    09:00Облачно с прояснениями+14°C80 %759 мм4.4 м/с8 %
    12:00Облачно с прояснениями+16°C75 %760 мм5.0 м/с2 %
    15:00Практически безоблачно+16°C73 %760 мм5.1 м/с1 %
    18:00Ясно и безоблачно+16°C73 %760 мм4.4 м/с2 %
    21:00Ясно и безоблачно+13°C79 %760 мм4.0 м/с2 %
  • 21июля
    Воскресенье
    +10°
    +19°
    Ясно и безоблачно
    ВремяПогодаТемператураВлажностьДавлениеВетер, м/сВероятность осадков
    00:00Ясно и безоблачно+11°C88 %761 мм2.8 м/с2 %
    03:00Ясно и безоблачно+10°C93 %761 мм2.6 м/с2 %
    06:00Ясно и безоблачно+12°C90 %762 мм2.5 м/с2 %
    09:00Ясно и безоблачно+16°C76 %762 мм2.8 м/с2 %
    12:00Ясно и безоблачно+19°C64 %762 мм3.3 м/с2 %
    15:00Ясно и безоблачно+18°C63 %762 мм3.7 м/с2 %
    18:00Ясно и безоблачно+17°C68 %762 мм3.2 м/с2 %
    21:00Ясно и безоблачно+14°C80 %762 мм2.5 м/с2 %
  • 22июля
    Понедельник
    +10°
    +21°
    Небольшая облачность
    ВремяПогодаТемператураВлажностьДавлениеВетер, м/сВероятность осадков
    00:00Ясно и безоблачно+12°C85 %762 мм1.8 м/с2 %
    03:00Ясно и безоблачно+11°C88 %762 мм1.8 м/с2 %
    06:00Ясно и безоблачно+13°C89 %763 мм1.8 м/с2 %
    09:00Ясно и безоблачно+18°C72 %763 мм1.6 м/с2 %
    12:00Практически безоблачно+21°C62 %763 мм2.4 м/с2 %
    15:00Небольшая облачность+21°C61 %763 мм2.5 м/с2 %
    18:00Ясно и безоблачно+19°C70 %763 мм2.0 м/с2 %
    21:00Ясно и безоблачно+15°C82 %763 мм1.6 м/с2 %
  • 23июля
    Вторник
    +11°
    +23°
    Ясно и безоблачно
    ВремяПогодаТемператураВлажностьДавлениеВетер, м/сВероятность осадков
    00:00Ясно и безоблачно+12°C88 %763 мм1.6 м/с2 %
    03:00Ясно и безоблачно+11°C90 %763 мм0.7 м/с2 %
    06:00Ясно и безоблачно+13°C87 %764 мм0.8 м/с2 %
    09:00Ясно и безоблачно+20°C71 %763 мм1.1 м/с2 %
    12:00Ясно и безоблачно+23°C59 %763 мм2.1 м/с2 %
    15:00Ясно и безоблачно+22°C52 %763 мм2.4 м/с2 %
    18:00Ясно и безоблачно+21°C59 %762 мм2.0 м/с2 %
    21:00Ясно и безоблачно+16°C73 %762 мм1.3 м/с2 %
Мы используем cookies
Соглашаюсь